createdAt,value
2022-11-21T00:01:23.818Z,48.75
2022-11-21T00:03:51.374Z,44.08
2022-11-21T00:06:19.644Z,44.65
2022-11-21T00:08:47.105Z,43.38
2022-11-21T00:11:15.643Z,42.08
2022-11-21T00:13:43.342Z,45.83
2022-11-21T00:16:13.301Z,44.75
2022-11-21T00:18:40.482Z,42.50
2022-11-21T00:21:10.527Z,46.47
2022-11-21T00:23:37.598Z,48.97
2022-11-21T00:26:06.795Z,48.47
2022-11-21T00:28:34.433Z,45.53
2022-11-21T00:31:01.967Z,46.55
2022-11-21T00:33:29.081Z,48.60
2022-11-21T00:35:56.151Z,50.95
2022-11-21T00:38:24.339Z,44.38
2022-11-21T00:40:51.397Z,44.47
2022-11-21T00:43:18.609Z,48.92
2022-11-21T00:45:45.676Z,45.08
2022-11-21T00:48:12.673Z,43.65
2022-11-21T00:50:39.686Z,39.80
2022-11-21T00:53:06.780Z,41.70
2022-11-21T00:55:33.790Z,49.70
2022-11-21T00:58:00.878Z,42.42
2022-11-21T01:00:27.937Z,40.90
2022-11-21T01:02:55.047Z,51.92
2022-11-21T01:05:23.335Z,51.13
2022-11-21T01:07:50.421Z,44.08
2022-11-21T01:10:17.444Z,41.67
2022-11-21T01:12:44.573Z,47.97
2022-11-21T01:15:11.790Z,45.55
2022-11-21T01:17:38.775Z,40.65
2022-11-21T01:20:07.030Z,42.80
2022-11-21T01:22:34.091Z,39.67
2022-11-21T01:25:01.129Z,39.92
2022-11-21T01:27:28.155Z,42.05
2022-11-21T01:29:55.131Z,39.58
2022-11-21T01:32:22.509Z,44.45
2022-11-21T01:34:49.529Z,42.03
2022-11-21T01:37:16.574Z,40.42
2022-11-21T01:39:43.619Z,48.42
2022-11-21T01:42:12.985Z,41.83
2022-11-21T01:44:49.793Z,43.55
2022-11-21T01:47:17.286Z,45.40
2022-11-21T01:49:45.227Z,42.60
2022-11-21T01:52:24.962Z,45.38
2022-11-21T01:54:57.741Z,48.58
2022-11-21T01:57:48.407Z,44.57
2022-11-21T02:00:24.320Z,51.10
2022-11-21T02:02:56.159Z,46.17
2022-11-21T02:05:28.097Z,47.83
2022-11-21T02:07:58.519Z,43.17
2022-11-21T02:10:26.105Z,41.40
2022-11-21T02:12:55.273Z,41.30
2022-11-21T02:15:26.051Z,45.53
2022-11-21T02:17:53.186Z,51.75
2022-11-21T02:20:23.928Z,44.35
2022-11-21T02:22:53.616Z,49.90
2022-11-21T02:25:31.467Z,51.22
2022-11-21T02:28:01.556Z,43.58
2022-11-21T02:30:33.067Z,47.80
2022-11-21T02:33:00.154Z,42.70
2022-11-21T02:35:27.150Z,42.45
2022-11-21T02:38:22.654Z,47.58
2022-11-21T02:41:13.585Z,41.65
2022-11-21T02:43:49.515Z,45.00
2022-11-21T02:46:16.542Z,43.65
2022-11-21T02:48:43.866Z,45.22
2022-11-21T02:51:10.923Z,48.08
2022-11-21T02:53:38.038Z,42.15
2022-11-21T02:56:05.123Z,49.33
2022-11-21T02:58:32.502Z,46.38
2022-11-21T03:00:59.586Z,44.13
2022-11-21T03:03:26.785Z,43.88
2022-11-21T03:05:54.488Z,43.33
2022-11-21T03:08:21.504Z,47.05
2022-11-21T03:10:48.527Z,46.67
2022-11-21T03:13:15.621Z,46.60
2022-11-21T03:15:42.658Z,44.83
2022-11-21T03:18:09.719Z,47.13
2022-11-21T03:20:36.773Z,48.40
2022-11-21T03:23:04.266Z,41.20
2022-11-21T03:25:31.408Z,46.42
2022-11-21T03:27:58.476Z,42.28
2022-11-21T03:30:26.652Z,47.28
2022-11-21T03:32:57.170Z,44.55
2022-11-21T03:35:24.486Z,45.67
2022-11-21T03:37:51.542Z,51.67
2022-11-21T03:40:18.589Z,50.35
2022-11-21T03:42:45.653Z,43.53
2022-11-21T03:45:12.634Z,50.33
2022-11-21T03:47:39.705Z,46.38
2022-11-21T03:50:07.267Z,55.40
2022-11-21T03:52:34.256Z,55.72
2022-11-21T03:55:01.302Z,50.22
2022-11-21T03:57:28.691Z,55.15
2022-11-21T03:59:55.731Z,58.75
2022-11-21T04:02:22.854Z,55.80
2022-11-21T04:04:49.854Z,55.63
2022-11-21T04:07:16.951Z,71.47
2022-11-21T04:09:43.980Z,56.72
2022-11-21T04:12:10.987Z,63.97
2022-11-21T04:14:38.045Z,61.03
2022-11-21T04:17:05.286Z,61.42
2022-11-21T04:19:32.286Z,73.07
2022-11-21T04:21:59.338Z,71.22
2022-11-21T04:24:26.707Z,79.82
2022-11-21T04:26:55.350Z,65.72
2022-11-21T04:29:22.433Z,106.30
2022-11-21T04:31:49.401Z,82.50
2022-11-21T04:34:16.435Z,68.93
2022-11-21T04:36:43.574Z,64.45
2022-11-21T04:39:10.815Z,112.75
2022-11-21T04:41:37.853Z,72.13
2022-11-21T04:44:05.119Z,64.00
2022-11-21T04:46:32.160Z,58.72
2022-11-21T04:48:59.248Z,65.43
2022-11-21T04:51:26.238Z,66.95
2022-11-21T04:53:53.615Z,74.35
2022-11-21T04:56:20.650Z,108.28
2022-11-21T04:58:47.680Z,83.13
2022-11-21T05:01:14.785Z,91.97
2022-11-21T05:03:41.862Z,70.35
2022-11-21T05:06:08.923Z,57.00
2022-11-21T05:08:35.991Z,63.90
2022-11-21T05:11:22.056Z,59.28
2022-11-21T05:13:49.093Z,61.70
2022-11-21T05:16:16.131Z,87.60
2022-11-21T05:18:43.677Z,91.30
2022-11-21T05:21:10.741Z,89.10
2022-11-21T05:23:37.742Z,169.45
2022-11-21T05:26:04.754Z,124.97
2022-11-21T05:28:31.774Z,111.25
2022-11-21T05:30:58.847Z,159.77
2022-11-21T05:33:25.901Z,122.30
2022-11-21T05:35:53.064Z,115.63
2022-11-21T05:38:20.128Z,82.68
2022-11-21T05:40:47.554Z,120.68
2022-11-21T05:43:33.060Z,125.68
2022-11-21T05:46:00.069Z,172.23
2022-11-21T05:48:27.133Z,91.70
2022-11-21T05:50:54.486Z,78.07
2022-11-21T05:53:21.768Z,89.03
2022-11-21T05:55:48.780Z,64.82
2022-11-21T05:58:18.711Z,54.22
2022-11-21T06:00:45.732Z,66.57
2022-11-21T06:03:27.642Z,58.20
2022-11-21T06:06:07.977Z,68.38
2022-11-21T06:08:37.613Z,72.38
2022-11-21T06:11:06.351Z,55.53
2022-11-21T06:13:36.528Z,61.83
2022-11-21T06:16:06.390Z,57.53
2022-11-21T06:18:35.458Z,51.65
2022-11-21T06:21:05.565Z,56.72
2022-11-21T06:23:32.674Z,79.28
2022-11-21T06:26:02.190Z,60.13
2022-11-21T06:28:34.855Z,64.63
2022-11-21T06:31:10.669Z,60.70
2022-11-21T06:33:38.710Z,64.93
2022-11-21T06:36:08.252Z,78.60
2022-11-21T06:38:35.781Z,77.22
2022-11-21T06:41:32.242Z,60.40
2022-11-21T06:44:01.394Z,73.22
2022-11-21T06:46:28.668Z,57.72
2022-11-21T06:48:55.683Z,63.25
2022-11-21T06:51:24.097Z,66.38
2022-11-21T06:53:56.433Z,49.15
2022-11-21T06:56:28.562Z,60.72
2022-11-21T06:58:56.380Z,52.05
2022-11-21T07:01:23.948Z,57.33
2022-11-21T07:03:51.812Z,51.60
2022-11-21T07:06:18.840Z,51.88
2022-11-21T07:08:45.877Z,50.45
2022-11-21T07:11:30.313Z,54.00
2022-11-21T07:13:57.416Z,56.35
2022-11-21T07:16:26.308Z,59.10
2022-11-21T07:18:53.546Z,55.33
2022-11-21T07:21:20.726Z,54.58
2022-11-21T07:23:48.681Z,61.90
2022-11-21T07:26:15.810Z,60.88
2022-11-21T07:28:43.200Z,67.40
2022-11-21T07:31:13.993Z,55.25
2022-11-21T07:33:43.442Z,59.13
2022-11-21T07:36:11.919Z,51.70
2022-11-21T07:38:39.110Z,54.88
2022-11-21T07:41:06.190Z,59.33
2022-11-21T07:43:33.249Z,65.68
2022-11-21T07:46:00.297Z,57.03
2022-11-21T07:48:27.360Z,57.58
2022-11-21T07:50:54.375Z,57.30
2022-11-21T07:53:21.952Z,55.40
2022-11-21T07:55:49.413Z,56.97
2022-11-21T07:58:17.289Z,55.35
2022-11-21T08:00:44.364Z,64.00
2022-11-21T08:03:13.100Z,51.33
2022-11-21T08:05:42.756Z,51.38
2022-11-21T08:08:12.118Z,62.75
2022-11-21T08:10:43.885Z,53.88
2022-11-21T08:13:12.050Z,57.70
2022-11-21T08:15:39.611Z,55.20
2022-11-21T08:18:11.015Z,57.05
2022-11-21T08:20:38.437Z,51.45
2022-11-21T08:23:06.551Z,50.40
2022-11-21T08:25:36.687Z,60.30
2022-11-21T08:28:04.528Z,49.08
2022-11-21T08:30:32.797Z,58.20
2022-11-21T08:33:00.213Z,46.70
2022-11-21T08:35:28.427Z,53.00
2022-11-21T08:37:59.242Z,50.13
2022-11-21T08:40:27.720Z,41.72
2022-11-21T08:43:20.759Z,48.15
2022-11-21T08:45:47.988Z,43.63
2022-11-21T08:48:15.261Z,45.38
2022-11-21T08:50:42.278Z,46.78
2022-11-21T08:53:09.235Z,46.65
2022-11-21T08:55:36.241Z,52.65
2022-11-21T08:58:03.286Z,54.22
2022-11-21T09:00:30.299Z,48.53
2022-11-21T09:02:57.342Z,57.40
2022-11-21T09:05:24.638Z,50.95
2022-11-21T09:07:58.279Z,48.83
2022-11-21T09:10:26.913Z,52.25
2022-11-21T09:12:54.001Z,58.42
2022-11-21T09:15:39.806Z,55.45
2022-11-21T09:18:08.069Z,49.97
2022-11-21T09:20:47.698Z,51.60
2022-11-21T09:23:15.968Z,41.97
2022-11-21T09:25:43.390Z,45.40
2022-11-21T09:28:12.580Z,45.95
2022-11-21T09:30:40.902Z,46.95
2022-11-21T09:33:11.592Z,50.35
2022-11-21T09:35:38.900Z,51.45
2022-11-21T09:38:06.355Z,48.47
2022-11-21T09:40:34.785Z,53.97
2022-11-21T09:43:26.335Z,50.35
2022-11-21T09:46:15.959Z,46.03
2022-11-21T09:48:59.112Z,51.65
2022-11-21T09:51:30.873Z,63.77
2022-11-21T09:54:18.848Z,55.95
2022-11-21T09:56:47.237Z,60.08
2022-11-21T09:59:26.353Z,56.20
2022-11-21T10:01:53.405Z,53.22
2022-11-21T10:04:20.535Z,57.45
2022-11-21T10:07:04.814Z,53.97
2022-11-21T10:09:55.917Z,75.20
2022-11-21T10:12:38.672Z,72.75
2022-11-21T10:15:29.095Z,62.03
2022-11-21T10:18:14.369Z,52.22
2022-11-21T10:20:50.628Z,53.90
2022-11-21T10:23:36.861Z,54.05
2022-11-21T10:26:30.942Z,53.10
2022-11-21T10:29:06.967Z,54.65
2022-11-21T10:31:38.588Z,59.63
2022-11-21T10:34:18.203Z,52.92
2022-11-21T10:36:49.817Z,50.95
2022-11-21T10:39:23.077Z,50.97
2022-11-21T10:42:06.516Z,46.20
2022-11-21T10:44:51.946Z,54.47
2022-11-21T10:47:27.938Z,58.72
2022-11-21T10:50:01.408Z,51.17
2022-11-21T10:52:34.152Z,58.72
2022-11-21T10:55:12.635Z,54.65
2022-11-21T10:57:41.890Z,57.63
2022-11-21T11:00:12.300Z,58.72
2022-11-21T11:02:41.355Z,57.47
2022-11-21T11:05:25.257Z,58.05
2022-11-21T11:08:02.473Z,64.35
2022-11-21T11:10:31.221Z,65.50
2022-11-21T11:13:44.641Z,54.15
2022-11-21T11:16:16.949Z,50.88
2022-11-21T11:19:08.659Z,62.33
2022-11-21T11:21:44.306Z,53.28
2022-11-21T11:24:14.339Z,49.63
2022-11-21T11:26:53.124Z,52.78
2022-11-21T11:29:24.441Z,50.45
2022-11-21T11:31:58.725Z,49.42
2022-11-21T11:34:38.716Z,59.67
2022-11-21T11:37:41.161Z,51.05
2022-11-21T11:40:26.690Z,55.70
2022-11-21T11:43:31.124Z,55.05
2022-11-21T11:47:04.336Z,50.92
2022-11-21T11:50:15.650Z,53.35
2022-11-21T11:53:00.548Z,52.63
2022-11-21T11:55:33.560Z,57.28
2022-11-21T11:58:05.123Z,51.17
2022-11-21T12:00:45.187Z,50.20
2022-11-21T12:03:19.109Z,48.13
2022-11-21T12:06:08.632Z,55.88
2022-11-21T12:08:50.964Z,47.22
2022-11-21T12:11:45.557Z,45.83
2022-11-21T12:14:48.739Z,46.28
2022-11-21T12:17:19.498Z,42.72
2022-11-21T12:19:48.763Z,45.35
2022-11-21T12:22:15.828Z,50.05
2022-11-21T12:24:43.569Z,45.95
2022-11-21T12:27:31.466Z,42.95
2022-11-21T12:30:25.181Z,42.20
2022-11-21T12:33:13.364Z,40.78
2022-11-21T12:36:17.464Z,44.08
2022-11-21T12:42:01.740Z,41.00
2022-11-21T12:44:40.358Z,36.55
2022-11-21T12:47:57.608Z,41.35
2022-11-21T12:50:58.936Z,37.22
2022-11-21T12:54:07.628Z,48.00
2022-11-21T12:56:57.743Z,39.72
2022-11-21T12:59:25.369Z,38.45
2022-11-21T13:02:29.970Z,32.17
2022-11-21T13:04:59.523Z,27.90
2022-11-21T13:07:31.227Z,31.45
2022-11-21T13:10:00.933Z,37.60
2022-11-21T13:12:40.150Z,35.45
2022-11-21T13:15:21.851Z,30.25
2022-11-21T13:17:53.773Z,32.35
2022-11-21T13:20:28.030Z,31.23
2022-11-21T13:22:57.492Z,32.03
2022-11-21T13:25:30.261Z,32.38
2022-11-21T13:28:19.067Z,30.67
2022-11-21T13:30:51.103Z,24.38
2022-11-21T13:33:38.947Z,30.38
2022-11-21T13:36:10.408Z,28.63
2022-11-21T13:38:55.340Z,32.55
2022-11-21T13:41:53.195Z,29.92
2022-11-21T13:44:32.271Z,29.15
2022-11-21T13:47:09.354Z,27.35
2022-11-21T13:49:54.837Z,27.67
2022-11-21T13:52:53.915Z,27.30
2022-11-21T13:55:20.907Z,30.15
2022-11-21T13:58:38.741Z,32.58
2022-11-21T14:01:10.427Z,23.52
2022-11-21T14:03:55.860Z,20.77
2022-11-21T14:06:44.498Z,23.67
2022-11-21T14:09:21.840Z,26.33
2022-11-21T14:11:53.124Z,27.80
2022-11-21T14:14:31.460Z,26.65
2022-11-21T14:17:09.141Z,27.70
2022-11-21T14:19:36.411Z,29.90
2022-11-21T14:22:03.428Z,30.45
2022-11-21T14:24:30.622Z,28.33
2022-11-21T14:26:58.362Z,27.50
2022-11-21T14:29:39.477Z,29.35
2022-11-21T14:32:14.056Z,25.35
2022-11-21T14:34:41.124Z,32.20
2022-11-21T14:37:08.294Z,24.17
2022-11-21T14:39:44.126Z,22.67
2022-11-21T14:42:16.189Z,27.92
2022-11-21T14:44:43.984Z,21.90
2022-11-21T14:47:23.505Z,26.83
2022-11-21T14:49:54.912Z,21.83
2022-11-21T14:52:34.065Z,29.50
2022-11-21T14:57:53.056Z,20.30
2022-11-21T15:00:58.015Z,23.70
2022-11-21T15:03:22.291Z,19.95
2022-11-21T15:06:08.355Z,20.58
2022-11-21T15:11:34.589Z,18.60
2022-11-21T15:14:16.554Z,22.33
2022-11-21T15:16:50.237Z,21.38
2022-11-21T15:19:22.610Z,18.00
2022-11-21T15:21:53.088Z,22.30
2022-11-21T15:24:42.290Z,21.42
2022-11-21T15:27:27.539Z,19.45
2022-11-21T15:30:09.541Z,18.52
2022-11-21T15:33:08.937Z,23.25
2022-11-21T15:35:39.421Z,22.70
2022-11-21T15:38:27.439Z,20.73
2022-11-21T15:41:10.582Z,22.13
2022-11-21T15:43:47.962Z,18.80
2022-11-21T15:46:32.838Z,16.98
2022-11-21T15:49:31.455Z,20.60
2022-11-21T15:52:10.406Z,24.17
2022-11-21T15:54:38.025Z,17.10
2022-11-21T15:57:05.361Z,20.17
2022-11-21T15:59:32.760Z,26.15
2022-11-21T16:01:59.965Z,17.05
2022-11-21T16:04:27.382Z,17.92
2022-11-21T16:06:54.921Z,17.88
2022-11-21T16:09:22.088Z,17.35
2022-11-21T16:11:49.130Z,19.85
2022-11-21T16:14:18.337Z,14.40
2022-11-21T16:16:48.728Z,24.83
2022-11-21T16:19:16.170Z,23.58
2022-11-21T16:21:43.202Z,21.77
2022-11-21T16:24:10.296Z,17.65
2022-11-21T16:26:37.535Z,15.10
2022-11-21T16:29:05.667Z,19.08
2022-11-21T16:31:33.133Z,24.30
2022-11-21T16:34:00.749Z,18.33
2022-11-21T16:36:30.528Z,22.02
2022-11-21T16:39:01.903Z,18.80
2022-11-21T16:41:32.586Z,12.65
2022-11-21T16:43:59.633Z,18.83
2022-11-21T16:46:26.800Z,13.20
2022-11-21T16:49:02.388Z,20.83
2022-11-21T16:51:29.899Z,18.27
2022-11-21T16:53:59.681Z,19.95
2022-11-21T16:56:30.120Z,22.25
2022-11-21T16:58:57.170Z,20.48
2022-11-21T17:01:26.136Z,17.67
2022-11-21T17:03:53.508Z,20.67
2022-11-21T17:06:23.770Z,16.80
2022-11-21T17:08:50.882Z,20.48
2022-11-21T17:11:19.214Z,14.95
2022-11-21T17:13:47.963Z,19.88
2022-11-21T17:16:17.073Z,18.85
2022-11-21T17:18:44.928Z,14.98
2022-11-21T17:21:15.757Z,13.80
2022-11-21T17:23:44.759Z,19.33
2022-11-21T17:26:17.337Z,12.77
2022-11-21T17:28:46.090Z,16.08
2022-11-21T17:31:15.387Z,19.35
2022-11-21T17:33:43.441Z,16.45
2022-11-21T17:36:14.471Z,15.52
2022-11-21T17:38:42.935Z,19.52
2022-11-21T17:41:12.041Z,13.50
2022-11-21T17:43:39.467Z,15.77
2022-11-21T17:46:18.324Z,14.38
2022-11-21T17:48:51.442Z,15.98
2022-11-21T17:51:25.357Z,22.08
2022-11-21T17:53:53.124Z,14.65
2022-11-21T17:56:23.161Z,18.10
2022-11-21T17:58:51.293Z,19.85
2022-11-21T18:01:19.884Z,13.88
2022-11-21T18:04:18.103Z,15.90
2022-11-21T18:06:45.177Z,18.27
2022-11-21T18:09:12.829Z,17.17
2022-11-21T18:11:40.806Z,14.32
2022-11-21T18:14:09.867Z,19.48
2022-11-21T18:16:43.653Z,14.23
2022-11-21T18:19:14.826Z,16.15
2022-11-21T18:21:42.328Z,20.65
2022-11-21T18:24:09.541Z,23.15
2022-11-21T18:26:38.565Z,20.95
2022-11-21T18:31:56.875Z,20.23
2022-11-21T18:34:24.190Z,19.45
2022-11-21T18:36:51.288Z,17.95
2022-11-21T18:39:18.351Z,19.45
2022-11-21T18:41:45.460Z,16.92
2022-11-21T18:44:20.141Z,15.95
2022-11-21T18:46:49.065Z,16.27
2022-11-21T18:49:16.073Z,11.43
2022-11-21T18:51:43.142Z,15.18
2022-11-21T18:54:10.938Z,15.43
2022-11-21T18:56:39.502Z,13.75
2022-11-21T18:59:06.993Z,18.98
2022-11-21T19:01:35.963Z,14.55
2022-11-21T19:04:03.346Z,15.27
2022-11-21T19:06:30.412Z,30.65
2022-11-21T19:08:58.357Z,15.35
2022-11-21T19:11:27.659Z,11.10
2022-11-21T19:13:56.329Z,14.60
2022-11-21T19:16:25.264Z,14.85
2022-11-21T19:21:42.368Z,11.65
2022-11-21T19:24:14.629Z,13.98
2022-11-21T19:26:42.499Z,17.27
2022-11-21T19:29:10.550Z,13.02
2022-11-21T19:31:43.101Z,12.48
2022-11-21T19:34:12.923Z,17.67
2022-11-21T19:36:40.402Z,10.48
2022-11-21T19:39:07.668Z,13.65
2022-11-21T19:41:34.741Z,19.45
2022-11-21T19:44:02.181Z,11.60
2022-11-21T19:46:32.672Z,10.82
2022-11-21T19:49:00.787Z,10.00
2022-11-21T19:51:30.322Z,11.23
2022-11-21T19:53:57.498Z,13.88
2022-11-21T19:56:26.348Z,15.02
2022-11-21T19:58:56.355Z,13.10
2022-11-21T20:01:26.211Z,13.57
2022-11-21T20:03:56.295Z,11.13
2022-11-21T20:06:26.351Z,9.80
2022-11-21T20:08:57.292Z,13.50
2022-11-21T20:11:26.284Z,10.55
2022-11-21T20:13:53.968Z,17.23
2022-11-21T20:16:23.172Z,11.05
2022-11-21T20:18:51.422Z,10.35
2022-11-21T20:21:19.683Z,7.70
2022-11-21T20:23:47.544Z,11.57
2022-11-21T20:26:17.310Z,7.38
2022-11-21T20:28:44.682Z,10.00
2022-11-21T20:31:17.380Z,10.45
2022-11-21T20:33:47.375Z,12.85
2022-11-21T20:36:20.156Z,9.07
2022-11-21T20:38:54.604Z,11.18
2022-11-21T20:41:24.130Z,12.88
2022-11-21T20:46:46.863Z,11.70
2022-11-21T20:49:14.094Z,8.60
2022-11-21T20:54:30.592Z,11.10
2022-11-21T20:56:57.866Z,17.92
2022-11-21T20:59:25.910Z,8.30
2022-11-21T21:01:53.479Z,12.82
2022-11-21T21:04:20.523Z,9.55
2022-11-21T21:06:48.066Z,11.05
2022-11-21T21:09:15.171Z,10.13
2022-11-21T21:11:51.935Z,10.13
2022-11-21T21:14:20.021Z,10.00
2022-11-21T21:16:47.062Z,12.30
2022-11-21T21:19:14.326Z,11.65
2022-11-21T21:21:41.724Z,12.55
2022-11-21T21:24:11.156Z,13.90
2022-11-21T21:26:43.077Z,10.80
2022-11-21T21:29:12.500Z,7.97
2022-11-21T21:31:42.848Z,8.68
2022-11-21T21:34:14.003Z,12.05
2022-11-21T21:36:41.250Z,13.02
2022-11-21T21:39:08.446Z,14.77
2022-11-21T21:41:36.135Z,10.27
2022-11-21T21:44:03.290Z,8.00
2022-11-21T21:46:30.325Z,10.02
2022-11-21T21:48:58.187Z,12.25
2022-11-21T21:51:27.758Z,13.98
2022-11-21T21:53:56.795Z,10.75
2022-11-21T21:56:26.889Z,12.20
2022-11-21T21:58:54.200Z,11.75
2022-11-21T22:01:23.924Z,10.00
2022-11-21T22:03:55.912Z,12.60
2022-11-21T22:06:23.862Z,9.50
2022-11-21T22:08:51.751Z,11.80
2022-11-21T22:11:21.368Z,12.05
2022-11-21T22:13:53.455Z,7.95
2022-11-21T22:16:20.552Z,17.90
2022-11-21T22:18:48.130Z,12.13
2022-11-21T22:21:16.334Z,9.57
2022-11-21T22:24:02.902Z,10.00
2022-11-21T22:26:31.703Z,11.63
2022-11-21T22:28:58.818Z,13.57
2022-11-21T22:31:25.847Z,11.32
2022-11-21T22:33:53.182Z,13.07
2022-11-21T22:36:20.297Z,11.15
2022-11-21T22:38:48.031Z,10.35
2022-11-21T22:41:20.594Z,9.93
2022-11-21T22:43:53.303Z,12.90
2022-11-21T22:46:21.158Z,10.13
2022-11-21T22:48:48.882Z,7.85
2022-11-21T22:51:22.421Z,8.70
2022-11-21T22:53:50.526Z,9.43
2022-11-21T22:56:20.235Z,12.48
2022-11-21T22:58:48.405Z,15.52
2022-11-21T23:01:25.887Z,8.40
2022-11-21T23:03:55.605Z,12.90
2022-11-21T23:06:25.004Z,6.55
2022-11-21T23:08:54.115Z,7.22
2022-11-21T23:11:23.443Z,14.75
2022-11-21T23:13:52.263Z,6.13
2022-11-21T23:16:20.179Z,9.48
2022-11-21T23:18:47.392Z,6.53
2022-11-21T23:21:14.976Z,11.05
2022-11-21T23:23:42.226Z,10.07
2022-11-21T23:26:10.121Z,9.45
2022-11-21T23:28:37.135Z,15.63
2022-11-21T23:31:04.359Z,14.55
2022-11-21T23:33:32.313Z,7.10
2022-11-21T23:35:59.407Z,12.25
2022-11-21T23:38:26.648Z,8.45
2022-11-21T23:40:53.707Z,7.63
2022-11-21T23:43:20.774Z,7.63
2022-11-21T23:45:52.234Z,17.17
2022-11-21T23:48:21.048Z,10.18
2022-11-21T23:50:50.744Z,13.05
2022-11-21T23:53:19.015Z,9.77
2022-11-21T23:55:46.405Z,13.68
2022-11-21T23:58:13.873Z,11.07
